createdAt,value
2023-05-17T00:02:29.464Z,1.85
2023-05-17T00:07:31.125Z,1.50
2023-05-17T00:12:32.736Z,1.40
2023-05-17T00:17:34.501Z,1.95
2023-05-17T00:22:43.264Z,1.55
2023-05-17T00:27:44.871Z,1.90
2023-05-17T00:32:59.937Z,1.40
2023-05-17T00:38:06.065Z,1.92
2023-05-17T00:43:17.820Z,1.65
2023-05-17T00:48:21.381Z,1.60
2023-05-17T00:53:23.377Z,1.70
2023-05-17T00:58:30.747Z,1.58
2023-05-17T01:03:32.715Z,1.55
2023-05-17T01:08:34.565Z,1.33
2023-05-17T01:14:11.380Z,1.30
2023-05-17T01:19:40.213Z,1.50
2023-05-17T01:24:56.335Z,1.70
2023-05-17T01:30:01.330Z,1.40
2023-05-17T01:35:12.506Z,1.20
2023-05-17T01:40:14.328Z,1.45
2023-05-17T01:45:19.653Z,1.75
2023-05-17T01:50:24.508Z,1.90
2023-05-17T01:55:44.765Z,1.33
2023-05-17T02:01:01.177Z,1.70
2023-05-17T02:06:11.877Z,1.30
2023-05-17T02:11:16.068Z,1.60
2023-05-17T02:16:17.871Z,1.70
2023-05-17T02:21:35.969Z,2.00
2023-05-17T02:26:38.297Z,1.60
2023-05-17T02:31:40.134Z,1.95
2023-05-17T02:36:41.888Z,1.50
2023-05-17T02:41:54.021Z,1.70
2023-05-17T02:46:55.665Z,1.95
2023-05-17T02:51:57.285Z,1.70
2023-05-17T02:57:01.334Z,1.73
2023-05-17T03:02:03.289Z,2.08
2023-05-17T03:07:07.135Z,2.38
2023-05-17T03:12:09.786Z,1.83
2023-05-17T03:17:11.966Z,2.08
2023-05-17T03:22:14.833Z,2.40
2023-05-17T03:27:16.901Z,2.15
2023-05-17T03:32:19.422Z,1.83
2023-05-17T03:37:21.030Z,1.75
2023-05-17T03:42:23.646Z,1.85
2023-05-17T03:47:30.022Z,2.08
2023-05-17T03:52:31.634Z,3.20
2023-05-17T03:57:35.938Z,1.92
2023-05-17T04:02:38.152Z,1.80
2023-05-17T04:07:39.814Z,1.88
2023-05-17T04:12:41.723Z,1.63
2023-05-17T04:17:43.780Z,1.85
2023-05-17T04:22:45.459Z,1.63
2023-05-17T04:27:47.434Z,1.58
2023-05-17T04:32:50.345Z,1.73
2023-05-17T04:37:52.884Z,1.70
2023-05-17T04:42:56.520Z,1.75
2023-05-17T04:47:59.493Z,1.80
2023-05-17T04:53:01.904Z,1.52
2023-05-17T04:58:07.224Z,1.63
2023-05-17T05:03:09.226Z,1.63
2023-05-17T05:08:11.124Z,1.75
2023-05-17T05:13:13.015Z,1.58
2023-05-17T05:18:16.253Z,1.58
2023-05-17T05:23:21.223Z,2.08
2023-05-17T05:28:24.067Z,3.00
2023-05-17T05:33:26.288Z,1.60
2023-05-17T05:38:41.990Z,2.58
2023-05-17T05:43:43.830Z,2.17
2023-05-17T05:48:45.824Z,2.72
2023-05-17T05:53:47.741Z,2.35
2023-05-17T05:58:49.310Z,1.75
2023-05-17T06:04:06.039Z,2.13
2023-05-17T06:09:07.620Z,2.42
2023-05-17T06:14:24.116Z,2.38
2023-05-17T06:19:25.958Z,2.10
2023-05-17T06:24:27.753Z,2.55
2023-05-17T06:29:29.437Z,2.50
2023-05-17T06:34:30.999Z,2.83
2023-05-17T06:39:36.075Z,2.85
2023-05-17T06:44:42.279Z,2.50
2023-05-17T06:49:43.915Z,2.53
2023-05-17T06:54:45.523Z,2.47
2023-05-17T06:59:48.003Z,2.75
2023-05-17T07:04:49.640Z,2.58
2023-05-17T07:09:51.299Z,2.38
2023-05-17T07:14:52.964Z,2.78
2023-05-17T07:20:00.252Z,2.58
2023-05-17T07:25:06.854Z,2.42
2023-05-17T07:30:12.771Z,2.10
2023-05-17T07:35:14.346Z,2.85
2023-05-17T07:40:16.432Z,2.55
2023-05-17T07:45:19.017Z,2.50
2023-05-17T07:50:20.573Z,2.70
2023-05-17T07:55:22.381Z,2.42
2023-05-17T08:00:24.650Z,2.22
2023-05-17T08:05:27.509Z,2.22
2023-05-17T08:10:29.629Z,2.10
2023-05-17T08:15:36.183Z,3.10
2023-05-17T08:20:37.994Z,2.22
2023-05-17T08:25:39.667Z,2.35
2023-05-17T08:30:41.775Z,2.33
2023-05-17T08:36:02.969Z,2.60
2023-05-17T08:41:06.226Z,2.35
2023-05-17T08:46:09.510Z,2.20
2023-05-17T08:51:12.128Z,2.80
2023-05-17T08:56:16.486Z,2.25
2023-05-17T09:01:18.761Z,2.50
2023-05-17T09:06:22.776Z,2.63
2023-05-17T09:11:26.870Z,2.58
2023-05-17T09:16:48.481Z,2.30
2023-05-17T09:21:55.250Z,2.97
2023-05-17T09:27:03.900Z,2.45
2023-05-17T09:32:26.283Z,2.60
2023-05-17T09:37:27.892Z,2.63
2023-05-17T09:42:29.614Z,2.70
2023-05-17T09:47:31.580Z,2.63
2023-05-17T09:52:37.009Z,2.53
2023-05-17T09:57:40.081Z,2.85
2023-05-17T10:02:44.046Z,3.33
2023-05-17T10:07:47.767Z,3.05
2023-05-17T10:12:50.449Z,2.70
2023-05-17T10:17:53.633Z,2.50
2023-05-17T10:22:58.454Z,2.60
2023-05-17T10:28:01.400Z,2.55
2023-05-17T10:33:04.535Z,1.85
2023-05-17T10:38:06.200Z,2.72
2023-05-17T10:43:10.374Z,2.08
2023-05-17T10:48:15.502Z,1.58
2023-05-17T10:53:17.195Z,2.25
2023-05-17T10:58:20.579Z,2.13
2023-05-17T11:03:25.743Z,2.25
2023-05-17T11:08:27.617Z,2.58
2023-05-17T11:13:29.337Z,1.77
2023-05-17T11:18:54.676Z,2.03
2023-05-17T11:24:02.046Z,2.50
2023-05-17T11:29:08.834Z,3.05
2023-05-17T11:34:11.858Z,2.40
2023-05-17T11:39:15.321Z,2.13
2023-05-17T11:44:25.297Z,2.15
2023-05-17T11:49:42.427Z,2.47
2023-05-17T11:54:48.205Z,2.80
2023-05-17T11:59:49.783Z,2.25
2023-05-17T12:04:51.650Z,2.20
2023-05-17T12:09:53.345Z,1.95
2023-05-17T12:14:55.044Z,2.15
2023-05-17T12:20:07.026Z,2.33
2023-05-17T12:25:19.460Z,1.90
2023-05-17T12:30:21.362Z,2.10
2023-05-17T12:35:22.966Z,1.70
2023-05-17T12:40:24.736Z,1.88
2023-05-17T12:45:26.360Z,2.20
2023-05-17T12:50:36.308Z,2.53
2023-05-17T12:55:38.348Z,2.00
2023-05-17T13:00:40.196Z,2.22
2023-05-17T13:05:44.145Z,2.28
2023-05-17T13:10:45.728Z,2.35
2023-05-17T13:15:47.681Z,2.53
2023-05-17T13:20:51.290Z,2.25
2023-05-17T13:25:54.017Z,3.17
2023-05-17T13:30:56.003Z,2.28
2023-05-17T13:35:57.680Z,2.05
2023-05-17T13:40:59.311Z,2.10
2023-05-17T13:46:00.866Z,2.22
2023-05-17T13:51:02.580Z,1.85
2023-05-17T13:56:04.512Z,2.25
2023-05-17T14:01:06.535Z,2.65
2023-05-17T14:06:08.268Z,2.60
2023-05-17T14:11:09.941Z,2.45
2023-05-17T14:16:11.506Z,2.85
2023-05-17T14:21:13.061Z,2.38
2023-05-17T14:26:14.687Z,2.35
2023-05-17T14:31:16.259Z,2.60
2023-05-17T14:36:17.800Z,2.42
2023-05-17T14:41:19.325Z,2.28
2023-05-17T14:46:21.065Z,2.08
2023-05-17T14:51:22.773Z,2.17
2023-05-17T14:56:25.379Z,2.15
2023-05-17T15:01:26.926Z,2.55
2023-05-17T15:06:28.496Z,2.47
2023-05-17T15:11:30.345Z,2.42
2023-05-17T15:16:33.222Z,2.67
2023-05-17T15:21:34.847Z,2.00
2023-05-17T15:26:36.595Z,2.50
2023-05-17T15:31:38.237Z,2.40
2023-05-17T15:36:39.873Z,1.85
2023-05-17T15:41:41.371Z,2.50
2023-05-17T15:46:42.903Z,2.33
2023-05-17T15:51:44.451Z,2.55
2023-05-17T15:56:46.232Z,2.35
2023-05-17T16:01:47.973Z,2.20
2023-05-17T16:06:49.518Z,2.17
2023-05-17T16:11:51.145Z,1.90
2023-05-17T16:16:52.705Z,2.03
2023-05-17T16:21:54.332Z,2.58
2023-05-17T16:26:55.956Z,1.95
2023-05-17T16:31:57.514Z,2.95
2023-05-17T16:36:59.084Z,2.25
2023-05-17T16:42:03.485Z,2.20
2023-05-17T16:47:05.340Z,2.15
2023-05-17T16:52:07.811Z,1.95
2023-05-17T16:57:09.435Z,2.20
2023-05-17T17:02:11.159Z,2.45
2023-05-17T17:07:12.701Z,2.38
2023-05-17T17:12:24.087Z,2.00
2023-05-17T17:17:26.622Z,2.33
2023-05-17T17:22:28.144Z,2.30
2023-05-17T17:27:29.690Z,2.10
2023-05-17T17:32:31.556Z,2.30
2023-05-17T17:37:33.426Z,1.95
2023-05-17T17:42:35.011Z,2.33
2023-05-17T17:47:36.610Z,2.22
2023-05-17T17:52:38.289Z,2.22
2023-05-17T17:57:39.896Z,2.25
2023-05-17T18:02:41.784Z,2.10
2023-05-17T18:07:43.361Z,2.10
2023-05-17T18:12:44.909Z,2.20
2023-05-17T18:17:46.545Z,2.47
2023-05-17T18:22:48.693Z,2.50
2023-05-17T18:27:50.501Z,2.35
2023-05-17T18:32:52.198Z,2.28
2023-05-17T18:37:53.786Z,2.40
2023-05-17T18:42:55.357Z,2.22
2023-05-17T18:47:56.969Z,2.28
2023-05-17T18:53:02.549Z,2.88
2023-05-17T18:58:04.128Z,2.80
2023-05-17T19:03:05.768Z,2.40
2023-05-17T19:08:07.314Z,2.40
2023-05-17T19:13:09.161Z,2.05
2023-05-17T19:18:10.870Z,2.00
2023-05-17T19:23:12.545Z,2.25
2023-05-17T19:28:14.120Z,1.95
2023-05-17T19:33:16.482Z,2.70
2023-05-17T19:38:18.019Z,2.28
2023-05-17T19:43:19.551Z,2.72
2023-05-17T19:48:24.256Z,2.25
2023-05-17T19:53:26.089Z,2.90
2023-05-17T19:58:29.289Z,2.08
2023-05-17T20:03:31.029Z,3.03
2023-05-17T20:08:32.659Z,2.65
2023-05-17T20:13:34.691Z,2.20
2023-05-17T20:18:39.368Z,2.95
2023-05-17T20:23:41.871Z,2.70
2023-05-17T20:28:44.769Z,2.90
2023-05-17T20:33:46.484Z,3.22
2023-05-17T20:38:48.008Z,2.70
2023-05-17T20:43:49.761Z,3.15
2023-05-17T20:48:53.622Z,3.40
2023-05-17T20:53:55.171Z,2.80
2023-05-17T20:58:56.766Z,3.50
2023-05-17T21:03:59.103Z,2.97
2023-05-17T21:09:02.523Z,3.75
2023-05-17T21:14:04.328Z,3.50
2023-05-17T21:19:05.998Z,3.10
2023-05-17T21:24:07.987Z,3.45
2023-05-17T21:29:09.527Z,3.50
2023-05-17T21:34:11.113Z,2.88
2023-05-17T21:39:12.670Z,3.33
2023-05-17T21:44:14.266Z,2.83
2023-05-17T21:49:15.786Z,3.05
2023-05-17T21:54:17.448Z,4.07
2023-05-17T21:59:18.978Z,3.60
2023-05-17T22:04:20.647Z,3.67
2023-05-17T22:09:22.962Z,4.18
2023-05-17T22:14:25.849Z,3.67
2023-05-17T22:19:30.217Z,3.70
2023-05-17T22:24:31.977Z,3.53
2023-05-17T22:29:33.793Z,3.55
2023-05-17T22:34:35.403Z,3.53
2023-05-17T22:39:37.871Z,3.42
2023-05-17T22:44:39.499Z,3.40
2023-05-17T22:49:41.436Z,3.17
2023-05-17T22:54:42.972Z,3.20
2023-05-17T22:59:44.737Z,2.85
2023-05-17T23:04:46.401Z,3.70
2023-05-17T23:09:47.959Z,3.78
2023-05-17T23:14:51.642Z,3.80
2023-05-17T23:19:53.242Z,3.40
2023-05-17T23:24:55.718Z,4.00
2023-05-17T23:29:57.600Z,3.67
2023-05-17T23:35:03.608Z,3.78
2023-05-17T23:40:06.637Z,3.38
2023-05-17T23:45:09.489Z,3.55
2023-05-17T23:50:11.166Z,3.25
2023-05-17T23:55:13.139Z,3.60
